Time;durP1;ratioP1;P1;durP2;ratioP2;P2;SDS_P1;SDS_P2;PMS_P1;PMS_P2;Temp;Humidity;BMP_temperature;BMP_pressure;BME280_temperature;BME280_humidity;BME280_pressure;Samples;Min_cycle;Max_cycle;Signal;HPM_P1;HPM_P2
2024/04/07 00:00:50;;;;;;;5.20;2.90;;;;;;;11.23;100.00;100963.05;105946;1254;60569;-73
2024/04/07 00:03:19;;;;;;;6.20;2.90;;;;;;;11.21;100.00;100965.63;105944;1254;72456;-73
2024/04/07 00:05:55;;;;;;;2.90;2.70;;;;;;;11.18;100.00;100964.75;105935;1263;61942;-74
2024/04/07 00:08:23;;;;;;;3.80;2.80;;;;;;;11.16;100.00;100965.04;105972;1254;60354;-72
2024/04/07 00:10:49;;;;;;;2.80;2.60;;;;;;;11.14;100.00;100965.16;105917;1256;72284;-73
2024/04/07 00:13:16;;;;;;;5.00;3.20;;;;;;;11.11;100.00;100969.86;105932;1256;63846;-73
2024/04/07 00:15:43;;;;;;;3.90;2.70;;;;;;;11.08;100.00;100968.98;105936;1251;72613;-73
2024/04/07 00:18:10;;;;;;;5.00;2.60;;;;;;;11.05;100.00;100970.94;105971;1255;60456;-73
2024/04/07 00:20:38;;;;;;;6.40;3.10;;;;;;;11.01;100.00;100971.66;105920;1256;60398;-72
2024/04/07 00:23:05;;;;;;;3.50;2.80;;;;;;;10.97;100.00;100967.34;105870;1256;73967;-71
2024/04/07 00:25:33;;;;;;;3.60;2.90;;;;;;;10.93;100.00;100966.86;106024;1255;63020;-72
2024/04/07 00:27:59;;;;;;;3.50;2.60;;;;;;;10.89;100.00;100966.02;105923;1250;61261;-71
2024/04/07 00:30:26;;;;;;;8.00;2.90;;;;;;;10.86;100.00;100964.95;105901;1256;61234;-72
2024/04/07 00:32:52;;;;;;;5.70;3.00;;;;;;;10.84;100.00;100968.39;105758;1250;61272;-71
2024/04/07 00:35:19;;;;;;;4.30;2.80;;;;;;;10.82;100.00;100965.55;105904;1251;72188;-71
2024/04/07 00:37:45;;;;;;;6.30;3.20;;;;;;;10.80;100.00;100966.70;105875;1261;61174;-71
2024/04/07 00:40:12;;;;;;;2.70;2.50;;;;;;;10.78;100.00;100967.13;105881;1257;72369;-71
2024/04/07 00:42:39;;;;;;;4.20;2.50;;;;;;;10.77;100.00;100971.02;105893;1256;61292;-71
2024/04/07 00:45:05;;;;;;;6.10;2.90;;;;;;;10.77;100.00;100968.61;105865;1263;61280;-72
2024/04/07 00:47:32;;;;;;;4.70;2.70;;;;;;;10.76;100.00;100969.02;105737;1251;74542;-71
2024/04/07 00:49:59;;;;;;;5.80;2.50;;;;;;;10.75;100.00;100970.27;105894;1260;61141;-73
2024/04/07 00:52:26;;;;;;;7.30;2.80;;;;;;;10.74;100.00;100969.81;105839;1257;72557;-72
2024/04/07 00:54:52;;;;;;;4.30;3.00;;;;;;;10.72;100.00;100971.50;105923;1253;61218;-71
2024/04/07 00:57:19;;;;;;;3.70;3.10;;;;;;;10.71;100.00;100974.52;105691;1252;61310;-72
2024/04/07 00:59:46;;;;;;;6.20;3.40;;;;;;;10.70;100.00;100973.52;105806;1256;74456;-71
2024/04/07 01:02:12;;;;;;;6.70;3.20;;;;;;;10.69;100.00;100975.69;105678;1257;63955;-74
2024/04/07 01:04:39;;;;;;;4.00;2.70;;;;;;;10.66;100.00;100976.55;105696;1257;72623;-73
2024/04/07 01:07:06;;;;;;;5.00;3.40;;;;;;;10.65;100.00;100976.27;105840;1255;61759;-75
2024/04/07 01:09:33;;;;;;;9.90;3.70;;;;;;;10.65;100.00;100973.30;105852;1250;61234;-72
2024/04/07 01:12:10;;;;;;;5.80;3.10;;;;;;;10.65;100.00;100972.78;105927;1256;74677;-72
2024/04/07 01:14:36;;;;;;;7.20;3.50;;;;;;;10.65;100.00;100976.80;105950;1255;64003;-74
2024/04/07 01:17:07;;;;;;;7.00;3.60;;;;;;;10.66;100.00;100974.66;105957;1257;72598;-74
2024/04/07 01:19:34;;;;;;;5.90;3.10;;;;;;;10.66;100.00;100977.13;105907;1255;61884;-72
2024/04/07 01:22:01;;;;;;;5.10;3.40;;;;;;;10.65;100.00;100976.77;105944;1255;61240;-72
2024/04/07 01:24:28;;;;;;;4.20;3.10;;;;;;;10.66;100.00;100982.18;105949;1255;74718;-74
2024/04/07 01:26:55;;;;;;;4.80;2.70;;;;;;;10.64;100.00;100982.95;105940;1255;63730;-73
2024/04/07 01:29:21;;;;;;;7.30;3.10;;;;;;;10.62;100.00;100983.47;105853;1251;61221;-73
2024/04/07 01:31:48;;;;;;;4.60;3.00;;;;;;;10.58;100.00;100983.98;105965;1264;61347;-72
2024/04/07 01:34:15;;;;;;;4.60;2.80;;;;;;;10.54;100.00;100984.17;105864;1254;61222;-71
2024/04/07 01:36:42;;;;;;;7.50;3.20;;;;;;;10.50;100.00;100985.97;106052;1251;61218;-75
2024/04/07 01:39:09;;;;;;;6.70;3.50;;;;;;;10.47;100.00;100985.82;106210;1251;63894;-72
2024/04/07 01:41:36;;;;;;;4.50;3.10;;;;;;;10.44;100.00;100994.02;106244;1251;72533;-71
2024/04/07 01:44:03;;;;;;;4.80;3.20;;;;;;;10.40;100.00;100992.63;105878;1256;61314;-74
2024/04/07 01:46:30;;;;;;;7.80;3.40;;;;;;;10.38;100.00;101000.78;106029;1251;61246;-74
2024/04/07 01:48:58;;;;;;;3.60;3.20;;;;;;;10.37;100.00;101004.69;105993;1255;73609;-72
2024/04/07 01:51:25;;;;;;;4.70;3.30;;;;;;;10.35;100.00;101005.10;105934;1255;62182;-73
2024/04/07 01:53:51;;;;;;;3.50;3.20;;;;;;;10.36;100.00;101007.53;105953;1254;71583;-72
2024/04/07 01:56:18;;;;;;;7.60;3.20;;;;;;;10.37;100.00;101009.95;105960;1250;61860;-73
2024/04/07 01:58:44;;;;;;;7.50;3.40;;;;;;;10.39;100.00;101009.84;105974;1254;61145;-73
2024/04/07 02:01:11;;;;;;;6.70;3.20;;;;;;;10.41;100.00;101011.33;105875;1255;74378;-74
2024/04/07 02:03:38;;;;;;;4.30;3.50;;;;;;;10.42;100.00;101011.40;105823;1250;63751;-73
2024/04/07 02:06:05;;;;;;;8.20;4.40;;;;;;;10.44;100.00;101015.51;105912;1254;61224;-73
2024/04/07 02:08:33;;;;;;;7.20;3.50;;;;;;;10.46;100.00;101020.30;105970;1251;62077;-75
2024/04/07 02:10:59;;;;;;;5.50;3.60;;;;;;;10.47;100.00;101016.38;106002;1256;61240;-74
2024/04/07 02:13:26;;;;;;;5.30;3.70;;;;;;;10.49;100.00;101021.70;105954;1252;61490;-72
2024/04/07 02:15:55;;;;;;;5.50;3.70;;;;;;;10.52;100.00;101020.88;105890;1256;63999;-72
2024/04/07 02:18:22;;;;;;;8.10;4.10;;;;;;;10.55;100.00;101025.42;105873;1255;73090;-71
2024/04/07 02:20:53;;;;;;;5.50;3.10;;;;;;;10.57;100.00;101025.11;105837;1256;61216;-73
2024/04/07 02:23:19;;;;;;;8.80;3.30;;;;;;;10.61;100.00;101025.64;105881;1257;61096;-75
2024/04/07 02:25:47;;;;;;;6.30;3.90;;;;;;;10.63;100.00;101031.97;105910;1256;74530;-73
2024/04/07 02:28:13;;;;;;;4.20;3.70;;;;;;;10.66;100.00;101034.09;106034;1263;62412;-73
2024/04/07 02:30:40;;;;;;;11.50;3.90;;;;;;;10.68;100.00;101032.39;105932;1251;71621;-73
2024/04/07 02:33:08;;;;;;;10.80;4.20;;;;;;;10.70;100.00;101036.83;105842;1257;61926;-74
2024/04/07 02:35:36;;;;;;;4.50;3.80;;;;;;;10.71;100.00;101036.59;105808;1255;61164;-74
2024/04/07 02:38:03;;;;;;;4.10;3.60;;;;;;;10.73;100.00;101042.27;105890;1254;74605;-73
2024/04/07 02:40:30;;;;;;;7.60;3.40;;;;;;;10.74;100.00;101040.14;105891;1254;63986;-74
2024/04/07 02:42:57;;;;;;;7.10;3.80;;;;;;;10.75;100.00;101044.27;105887;1251;61313;-72
2024/04/07 02:48:09;;;;;;;6.00;4.10;;;;;;;10.77;100.00;101052.00;105898;1254;61247;-74
2024/04/07 02:50:36;;;;;;;7.30;4.40;;;;;;;10.79;100.00;101055.61;105867;1254;61224;-72
2024/04/07 02:53:03;;;;;;;4.70;4.10;;;;;;;10.81;100.00;101060.90;105884;1255;63909;-72
2024/04/07 02:55:30;;;;;;;5.00;4.10;;;;;;;10.83;100.00;101067.30;105884;1254;72343;-73
2024/04/07 02:57:57;;;;;;;12.40;4.30;;;;;;;10.83;100.00;101068.13;105889;1254;61196;-73
2024/04/07 03:00:23;;;;;;;6.10;4.20;;;;;;;10.83;100.00;101073.58;105854;1251;61243;-74
2024/04/07 03:02:50;;;;;;;5.10;4.50;;;;;;;10.84;100.00;101076.67;105879;1257;74358;-73
2024/04/07 03:05:17;;;;;;;6.90;4.70;;;;;;;10.84;100.00;101078.91;105918;1254;63873;-73
2024/04/07 03:07:46;;;;;;;9.60;4.60;;;;;;;10.86;100.00;101082.36;105808;1255;72616;-72
2024/04/07 03:10:16;;;;;;;8.40;4.60;;;;;;;10.87;100.00;101086.31;105834;1255;61103;-73
2024/04/07 03:12:43;;;;;;;8.90;5.30;;;;;;;10.87;100.00;101087.52;105871;1256;61219;-74
2024/04/07 03:15:10;;;;;;;5.30;4.70;;;;;;;10.86;100.00;101097.55;105866;1251;74527;-73
2024/04/07 03:17:36;;;;;;;6.00;4.90;;;;;;;10.84;100.00;101105.17;105840;1251;64115;-73
2024/04/07 03:20:03;;;;;;;6.50;4.10;;;;;;;10.82;100.00;101108.44;105852;1251;61266;-72
2024/04/07 03:22:30;;;;;;;7.50;5.20;;;;;;;10.81;100.00;101114.83;105853;1256;61653;-74
2024/04/07 03:24:58;;;;;;;8.30;5.50;;;;;;;10.78;100.00;101121.41;105951;1256;61324;-73
2024/04/07 03:27:24;;;;;;;8.90;5.10;;;;;;;10.74;100.00;101122.33;105905;1254;74760;-73
2024/04/07 03:29:51;;;;;;;9.60;4.50;;;;;;;10.70;100.00;101126.02;105900;1250;61105;-72
2024/04/07 03:32:18;;;;;;;10.80;4.80;;;;;;;10.67;100.00;101133.71;105887;1255;71177;-74
2024/04/07 03:34:45;;;;;;;6.10;4.30;;;;;;;10.64;100.00;101137.55;105869;1257;61916;-73
2024/04/07 03:37:13;;;;;;;6.50;4.90;;;;;;;10.60;100.00;101140.54;106022;1252;61243;-73
2024/04/07 03:39:41;;;;;;;6.90;4.60;;;;;;;10.56;100.00;101144.41;105915;1256;73697;-73
2024/04/07 03:42:08;;;;;;;6.10;4.80;;;;;;;10.55;100.00;101147.24;105884;1264;63914;-73
2024/04/07 03:44:36;;;;;;;6.50;5.00;;;;;;;10.58;100.00;101144.11;105929;1256;72435;-73
2024/04/07 03:47:03;;;;;;;7.70;4.30;;;;;;;10.67;100.00;101147.54;106019;1251;61955;-72
2024/04/07 03:49:30;;;;;;;9.00;5.00;;;;;;;10.77;100.00;101149.11;105839;1251;61247;-72
2024/04/07 03:51:56;;;;;;;7.90;4.50;;;;;;;10.88;100.00;101151.16;105890;1254;74646;-72
2024/04/07 03:54:23;;;;;;;9.40;5.50;;;;;;;10.99;100.00;101157.19;105914;1262;63983;-72
2024/04/07 03:56:50;;;;;;;7.90;5.60;;;;;;;11.08;100.00;101159.33;105880;1257;72637;-73
2024/04/07 03:59:17;;;;;;;10.70;5.70;;;;;;;11.16;100.00;101159.98;105855;1256;61751;-74
2024/04/07 04:01:44;;;;;;;9.60;5.60;;;;;;;11.22;100.00;101160.87;105992;1256;61333;-73
2024/04/07 04:04:14;;;;;;;8.50;4.90;;;;;;;11.28;100.00;101160.76;105978;1251;74598;-74
2024/04/07 04:06:41;;;;;;;5.10;4.10;;;;;;;11.31;100.00;101163.58;106026;1254;62895;-74
2024/04/07 04:09:09;;;;;;;7.40;4.50;;;;;;;11.35;100.00;101165.80;105805;1255;71773;-75
2024/04/07 04:11:36;;;;;;;7.20;5.00;;;;;;;11.38;100.00;101166.99;105905;1254;61289;-72
2024/04/07 04:14:03;;;;;;;6.90;4.10;;;;;;;11.42;100.00;101168.56;105827;1254;61141;-75
2024/04/07 04:16:30;;;;;;;8.50;4.60;;;;;;;11.45;100.00;101167.02;105889;1254;73968;-72
2024/04/07 04:18:57;;;;;;;11.10;7.20;;;;;;;11.46;100.00;101170.96;105923;1254;63970;-74
2024/04/07 04:21:25;;;;;;;11.80;7.80;;;;;;;11.48;100.00;101172.08;105895;1251;72707;-74
2024/04/07 04:23:52;;;;;;;7.10;5.60;;;;;;;11.52;100.00;101173.62;105942;1254;61695;-74
2024/04/07 04:26:18;;;;;;;8.50;5.70;;;;;;;11.60;100.00;101170.73;105926;1254;61245;-74
2024/04/07 04:28:45;;;;;;;10.90;8.00;;;;;;;11.71;100.00;101171.70;105928;1254;61272;-72
2024/04/07 04:31:12;;;;;;;5.90;4.10;;;;;;;11.82;100.00;101176.64;105922;1254;63787;-75
2024/04/07 04:33:39;;;;;;;6.20;4.50;;;;;;;11.99;100.00;101178.58;106506;1251;72661;-73
2024/04/07 04:36:15;;;;;;;7.30;4.60;;;;;;;12.18;100.00;101185.86;107177;1251;61198;-73
2024/04/07 04:38:42;;;;;;;6.10;4.60;;;;;;;12.40;100.00;101189.66;107018;1251;61239;-75
2024/04/07 04:41:09;;;;;;;5.30;4.00;;;;;;;12.62;100.00;101196.26;106152;1250;74611;-74
2024/04/07 04:43:36;;;;;;;9.00;4.10;;;;;;;12.89;100.00;101199.41;105987;1253;63661;-74
2024/04/07 04:46:06;;;;;;;7.60;4.00;;;;;;;13.18;100.00;101197.81;105862;1251;72486;-75
2024/04/07 04:48:34;;;;;;;6.60;4.70;;;;;;;13.54;100.00;101201.39;105942;1254;62213;-75
2024/04/07 04:51:00;;;;;;;11.10;6.40;;;;;;;13.95;100.00;101203.73;105919;1250;61229;-75
2024/04/07 04:53:28;;;;;;;9.70;8.40;;;;;;;14.43;100.00;101205.14;105881;1251;74707;-75
2024/04/07 04:56:02;;;;;;;7.80;5.00;;;;;;;14.78;100.00;101203.36;106035;1254;63573;-74
2024/04/07 04:58:30;;;;;;;6.50;4.10;;;;;;;14.93;100.00;101205.48;105860;1254;72367;-74
2024/04/07 05:00:57;;;;;;;7.70;4.50;;;;;;;15.15;100.00;101208.40;105809;1255;62002;-73
2024/04/07 05:03:25;;;;;;;7.70;4.00;;;;;;;15.63;100.00;101209.90;105911;1254;61337;-74
2024/04/07 05:05:52;;;;;;;7.60;4.50;;;;;;;16.26;100.00;101216.64;105858;1254;74805;-74
2024/04/07 05:08:19;;;;;;;8.70;4.20;;;;;;;16.89;100.00;101221.75;105981;1254;63754;-75
2024/04/07 05:10:46;;;;;;;10.20;4.10;;;;;;;17.53;100.00;101221.38;105834;1254;71000;-75
2024/04/07 05:13:13;;;;;;;5.50;3.50;;;;;;;18.16;99.80;101225.68;105890;1251;61199;-73
2024/04/07 05:15:41;;;;;;;9.50;3.80;;;;;;;18.73;92.97;101229.08;105829;1256;61343;-73
2024/04/07 05:18:08;;;;;;;7.50;3.40;;;;;;;19.26;85.21;101228.27;105943;1254;74708;-74
2024/04/07 05:20:35;;;;;;;5.10;3.50;;;;;;;19.77;75.90;101227.59;105895;1250;63953;-73
2024/04/07 05:23:02;;;;;;;8.20;4.50;;;;;;;20.22;71.72;101234.17;105998;1251;72665;-75
2024/04/07 05:25:29;;;;;;;6.80;5.00;;;;;;;20.52;67.21;101236.19;105909;1254;61109;-77
2024/04/07 05:27:56;;;;;;;7.80;5.10;;;;;;;20.60;64.69;101234.58;105951;1256;61321;-75
2024/04/07 05:30:23;;;;;;;4.70;3.90;;;;;;;20.46;63.35;101234.84;105932;1254;61103;-76
2024/04/07 05:32:49;;;;;;;4.80;3.00;;;;;;;20.14;64.26;101232.95;105920;1256;61244;-77
2024/04/07 05:35:16;;;;;;;5.40;3.20;;;;;;;19.79;66.50;101233.98;105895;1251;72625;-76
2024/04/07 05:37:46;;;;;;;5.60;2.90;;;;;;;19.46;69.02;101232.56;105910;1254;61195;-76
2024/04/07 05:40:13;;;;;;;7.00;3.40;;;;;;;19.22;72.12;101239.44;105968;1251;61477;-74
2024/04/07 05:42:40;;;;;;;6.20;3.60;;;;;;;19.15;74.72;101241.46;105897;1250;74655;-75
2024/04/07 05:45:07;;;;;;;6.60;3.80;;;;;;;19.23;75.55;101245.39;106001;1254;63790;-75
2024/04/07 05:47:34;;;;;;;6.00;3.30;;;;;;;19.35;75.06;101249.63;105942;1251;72688;-76
2024/04/07 05:50:00;;;;;;;5.40;3.70;;;;;;;19.47;75.20;101256.62;105989;1254;61250;-76
2024/04/07 05:52:30;;;;;;;7.30;3.60;;;;;;;19.61;74.32;101257.68;106039;1251;61534;-75
2024/04/07 05:54:57;;;;;;;7.00;3.40;;;;;;;19.76;75.09;101266.66;105861;1254;74520;-74
2024/04/07 05:57:24;;;;;;;7.40;3.40;;;;;;;19.88;73.84;101268.83;105957;1254;64092;-76
2024/04/07 05:59:52;;;;;;;7.50;3.60;;;;;;;20.00;73.72;101271.12;105842;1257;72402;-77
2024/04/07 06:02:19;;;;;;;5.60;3.20;;;;;;;20.15;73.01;101273.70;105935;1251;61269;-75
2024/04/07 06:04:45;;;;;;;6.60;3.70;;;;;;;20.27;71.85;101274.88;105900;1251;61383;-74
2024/04/07 06:07:12;;;;;;;5.20;3.20;;;;;;;20.49;71.24;101276.05;106021;1254;74706;-75
2024/04/07 06:09:41;;;;;;;6.70;2.90;;;;;;;20.82;70.35;101275.16;105881;1254;64240;-75
2024/04/07 06:12:08;;;;;;;8.10;3.10;;;;;;;21.13;67.04;101281.78;105905;1251;72801;-75
2024/04/07 06:14:35;;;;;;;6.70;2.80;;;;;;;21.42;63.57;101286.45;105773;1256;61298;-75
2024/04/07 06:17:02;;;;;;;8.00;3.20;;;;;;;21.76;62.38;101283.02;105914;1251;61254;-75
2024/04/07 06:19:29;;;;;;;7.20;2.90;;;;;;;22.20;59.59;101292.82;105876;1251;74686;-74
2024/04/07 06:21:56;;;;;;;6.80;3.50;;;;;;;22.68;56.56;101302.48;105930;1256;61146;-75
2024/04/07 06:24:22;;;;;;;4.00;2.50;;;;;;;23.22;54.25;101306.84;105994;1251;61145;-76
2024/04/07 06:26:49;;;;;;;5.00;2.70;;;;;;;23.79;51.05;101307.89;105969;1254;61317;-75
2024/04/07 06:29:15;;;;;;;7.90;3.40;;;;;;;24.34;48.17;101305.27;105901;1254;61126;-75
2024/04/07 06:31:42;;;;;;;4.60;3.20;;;;;;;24.88;45.80;101308.27;105887;1254;74676;-75
2024/04/07 06:34:11;;;;;;;8.40;2.90;;;;;;;25.36;43.80;101308.40;105863;1251;62350;-75
2024/04/07 06:36:38;;;;;;;4.60;2.50;;;;;;;25.81;42.76;101311.06;106003;1251;71883;-75
2024/04/07 06:39:05;;;;;;;4.70;3.10;;;;;;;26.27;40.72;101310.11;105941;1254;61335;-76
2024/04/07 06:41:32;;;;;;;9.20;4.40;;;;;;;26.74;39.39;101306.04;105869;1251;61254;-76
2024/04/07 06:43:59;;;;;;;7.50;3.50;;;;;;;27.20;38.06;101301.88;105824;1251;74720;-73
2024/04/07 06:46:26;;;;;;;5.00;2.40;;;;;;;27.57;37.66;101306.52;105870;1253;63737;-75
2024/04/07 06:48:54;;;;;;;7.40;3.10;;;;;;;27.84;36.87;101304.91;105887;1253;72693;-75
2024/04/07 06:51:22;;;;;;;3.90;2.50;;;;;;;28.03;36.85;101304.66;105897;1254;61141;-75
2024/04/07 06:53:49;;;;;;;4.20;3.20;;;;;;;28.21;36.24;101305.39;105900;1254;61238;-74
2024/04/07 06:56:17;;;;;;;5.00;3.80;;;;;;;28.41;35.78;101297.48;105952;1251;73817;-73
2024/04/07 06:58:44;;;;;;;5.80;2.70;;;;;;;28.63;35.76;101302.54;105865;1254;64226;-76
2024/04/07 07:01:10;;;;;;;7.00;3.10;;;;;;;28.79;34.65;101300.25;105981;1251;71759;-73
2024/04/07 07:03:37;;;;;;;3.90;2.90;;;;;;;28.95;34.03;101301.62;105896;1254;61420;-74
2024/04/07 07:06:04;;;;;;;7.00;3.20;;;;;;;29.12;33.92;101303.64;105955;1251;61157;-75
2024/04/07 07:08:31;;;;;;;5.10;2.80;;;;;;;29.28;33.63;101308.02;105837;1254;74515;-74
2024/04/07 07:11:01;;;;;;;6.40;2.90;;;;;;;29.48;33.04;101308.70;105920;1254;63810;-76
2024/04/07 07:13:30;;;;;;;5.90;2.90;;;;;;;29.75;32.63;101314.55;105894;1251;72672;-74
2024/04/07 07:15:59;;;;;;;4.20;3.00;;;;;;;29.96;32.10;101322.59;105887;1250;61244;-78
2024/04/07 07:18:27;;;;;;;11.00;4.60;;;;;;;30.09;31.84;101322.83;105920;1250;61254;-76
2024/04/07 07:20:54;;;;;;;5.20;3.90;;;;;;;30.20;31.62;101322.54;105966;1254;74477;-76
2024/04/07 07:23:23;;;;;;;6.30;2.90;;;;;;;30.34;31.43;101322.58;106084;1250;65644;-75
2024/04/07 07:25:55;;;;;;;8.30;2.90;;;;;;;30.50;31.07;101316.86;106151;1251;73089;-75
2024/04/07 07:28:23;;;;;;;4.10;2.30;;;;;;;30.68;30.46;101318.87;105908;1253;61930;-77
2024/04/07 07:30:50;;;;;;;3.30;2.60;;;;;;;30.85;30.89;101321.39;106032;1250;61200;-75
2024/04/07 07:33:17;;;;;;;5.70;2.20;;;;;;;30.98;30.18;101318.16;107081;1251;75623;-76
2024/04/07 07:35:45;;;;;;;8.80;4.70;;;;;;;31.03;30.25;101318.09;107466;1254;63966;-76
2024/04/07 07:38:12;;;;;;;2.90;2.40;;;;;;;31.09;30.23;101313.98;106418;1250;71452;-76
2024/04/07 07:40:39;;;;;;;4.60;2.70;;;;;;;31.23;30.68;101317.63;106195;1254;61187;-77
2024/04/07 07:43:06;;;;;;;4.70;1.80;;;;;;;31.44;29.58;101318.34;106271;1251;61244;-77
2024/04/07 07:45:33;;;;;;;3.70;1.90;;;;;;;31.61;28.37;101316.74;106103;1254;74702;-76
2024/04/07 07:48:02;;;;;;;4.10;2.00;;;;;;;31.75;28.08;101316.14;106130;1254;64095;-78
2024/04/07 07:50:28;;;;;;;7.20;2.90;;;;;;;31.82;27.44;101319.53;105992;1251;73775;-78
2024/04/07 07:52:56;;;;;;;4.40;2.20;;;;;;;31.88;27.18;101315.71;105960;1252;61892;-78
2024/04/07 07:55:23;;;;;;;2.90;1.90;;;;;;;32.07;27.12;101312.59;105974;1250;61269;-78
2024/04/07 07:57:50;;;;;;;9.20;4.00;;;;;;;32.26;26.42;101318.86;105876;1254;74799;-75
2024/04/07 08:00:19;;;;;;;5.00;2.40;;;;;;;32.28;26.35;101321.59;105950;1254;64214;-77
2024/04/07 08:02:54;;;;;;;4.10;2.10;;;;;;;32.38;26.05;101326.88;105889;1254;72931;-79
2024/04/07 08:05:21;;;;;;;4.30;2.90;;;;;;;32.54;26.13;101331.50;105987;1254;61261;-76
2024/04/07 08:07:48;;;;;;;5.10;2.30;;;;;;;32.74;26.09;101331.97;106025;1250;61315;-77
2024/04/07 08:10:14;;;;;;;2.00;1.60;;;;;;;32.95;25.53;101338.02;105836;1254;75762;-77
2024/04/07 08:12:43;;;;;;;4.90;1.50;;;;;;;33.13;25.13;101340.35;105964;1250;64280;-78
2024/04/07 08:15:14;;;;;;;3.50;1.60;;;;;;;33.34;25.01;101349.30;105811;1250;73749;-76
2024/04/07 08:17:41;;;;;;;3.50;1.40;;;;;;;33.51;24.88;101349.52;105955;1254;61493;-79
2024/04/07 08:20:08;;;;;;;2.20;1.50;;;;;;;33.50;24.56;101354.85;105875;1250;61839;-77
2024/04/07 08:22:35;;;;;;;2.40;1.40;;;;;;;33.51;24.65;101354.98;105996;1250;75670;-76
2024/04/07 08:25:05;;;;;;;3.40;2.60;;;;;;;33.56;24.61;101358.72;106032;1254;63849;-77
2024/04/07 08:27:33;;;;;;;3.80;1.80;;;;;;;33.63;24.20;101358.95;105792;1255;72205;-76
2024/04/07 08:30:03;;;;;;;3.30;1.40;;;;;;;33.60;24.51;101357.56;105981;1250;61219;-78
2024/04/07 08:32:30;;;;;;;2.20;1.20;;;;;;;33.58;24.23;101353.55;105960;1250;61592;-77
2024/04/07 08:35:04;;;;;;;4.00;1.00;;;;;;;33.63;23.97;101352.05;105734;1250;228204;-78
2024/04/07 08:38:26;;;;;;;3.50;0.90;;;;;;;33.72;24.31;101345.59;102447;1291;600888;-77
2024/04/07 08:40:54;;;;;;;3.00;1.20;;;;;;;33.78;23.45;101352.75;104695;1273;61030;-76
2024/04/07 08:43:22;;;;;;;3.60;1.50;;;;;;;33.94;23.60;101354.59;104618;1273;62160;-76
2024/04/07 08:45:51;;;;;;;4.90;0.80;;;;;;;34.09;23.46;101360.81;104752;1267;75399;-76
2024/04/07 08:48:19;;;;;;;2.70;1.20;;;;;;;34.09;23.13;101357.02;104750;1273;63767;-76
2024/04/07 08:50:47;;;;;;;1.60;1.20;;;;;;;34.09;23.44;101355.27;104668;1273;72063;-77
2024/04/07 08:53:15;;;;;;;1.30;1.10;;;;;;;34.17;23.35;101352.92;104681;1272;237717;-76
2024/04/07 08:55:42;;;;;;;2.00;0.80;;;;;;;34.30;23.13;101351.23;104741;1272;59657;-76
2024/04/07 08:58:10;;;;;;;4.00;1.60;;;;;;;34.37;22.78;101352.09;104754;1272;73003;-78
2024/04/07 09:00:37;;;;;;;3.20;0.90;;;;;;;34.43;22.78;101351.40;104844;1271;62790;-76
2024/04/07 09:03:05;;;;;;;1.30;0.60;;;;;;;34.53;22.66;101353.30;104913;1273;75376;-77
2024/04/07 09:05:32;;;;;;;4.90;1.40;;;;;;;34.51;22.40;101351.57;104919;1273;60867;-77
2024/04/07 09:07:59;;;;;;;2.10;0.90;;;;;;;34.47;22.07;101352.23;104896;1270;61580;-77
2024/04/07 09:10:27;;;;;;;2.40;0.80;;;;;;;34.49;22.50;101355.88;104871;1269;74826;-78
2024/04/07 09:12:55;;;;;;;1.80;0.70;;;;;;;34.61;22.50;101358.56;105816;1254;65860;-77
2024/04/07 09:15:23;;;;;;;8.90;1.10;;;;;;;34.54;22.19;101359.86;106039;1255;73621;-75
2024/04/07 09:17:50;;;;;;;1.10;0.80;;;;;;;34.42;22.46;101360.11;106184;1261;60556;-74
2024/04/07 09:20:21;;;;;;;2.40;0.60;;;;;;;34.37;22.35;101362.21;106414;1255;62249;-77
2024/04/07 09:22:48;;;;;;;1.00;0.70;;;;;;;34.33;22.05;101362.66;105849;1259;76221;-78
2024/04/07 09:25:16;;;;;;;2.20;1.00;;;;;;;34.37;22.27;101365.41;105702;1255;65784;-77
2024/04/07 09:27:43;;;;;;;0.50;0.50;;;;;;;34.42;21.90;101364.16;105479;1260;72096;-75
2024/04/07 09:30:11;;;;;;;4.30;0.70;;;;;;;34.39;21.88;101368.52;105754;1254;60510;-76
2024/04/07 09:32:38;;;;;;;3.60;1.10;;;;;;;34.35;21.84;101363.18;105775;1258;60385;-75
2024/04/07 09:35:06;;;;;;;1.70;0.80;;;;;;;34.35;21.75;101365.98;105577;1255;74063;-76
2024/04/07 09:37:41;;;;;;;4.30;0.60;;;;;;;34.25;21.71;101362.11;105675;1255;64181;-76
2024/04/07 09:40:09;;;;;;;2.60;0.30;;;;;;;34.21;21.65;101369.41;105733;1256;72126;-79
2024/04/07 09:42:37;;;;;;;1.50;0.30;;;;;;;34.24;20.74;101367.33;105773;1258;60542;-75
2024/04/07 09:45:09;;;;;;;1.20;0.40;;;;;;;34.37;20.80;101365.58;105752;1259;59209;-77
2024/04/07 09:47:38;;;;;;;1.40;0.50;;;;;;;34.56;20.48;101366.08;105713;1254;75983;-76
2024/04/07 09:50:32;;;;;;;1.30;0.40;;;;;;;34.47;20.04;101365.46;105748;1258;64102;-74
2024/04/07 09:53:05;;;;;;;2.10;0.40;;;;;;;34.22;20.85;101361.66;105763;1254;74898;-76
2024/04/07 09:55:36;;;;;;;1.10;0.60;;;;;;;34.11;20.92;101361.84;105600;1260;62227;-73
2024/04/07 09:58:03;;;;;;;1.20;0.60;;;;;;;34.18;21.16;101364.02;105722;1254;62412;-77
2024/04/07 10:00:31;;;;;;;1.40;0.40;;;;;;;34.38;20.71;101367.14;105703;1255;76148;-77
2024/04/07 10:02:58;;;;;;;1.70;0.70;;;;;;;34.55;20.47;101371.94;105588;1269;66029;-73
2024/04/07 10:05:26;;;;;;;3.10;0.50;;;;;;;34.60;20.32;101374.37;105722;1254;72707;-75
2024/04/07 10:07:56;;;;;;;1.80;0.50;;;;;;;34.63;20.10;101375.05;105778;1256;60418;-75
2024/04/07 10:10:27;;;;;;;0.90;0.40;;;;;;;34.62;20.00;101375.27;105653;1260;60558;-77
2024/04/07 10:12:54;;;;;;;1.50;0.60;;;;;;;34.66;19.90;101372.19;105671;1257;76620;-77
2024/04/07 10:15:23;;;;;;;1.50;1.00;;;;;;;34.68;20.06;101371.59;105631;1255;66340;-74
2024/04/07 10:17:50;;;;;;;1.40;0.70;;;;;;;34.68;20.51;101367.02;105533;1260;73655;-76
2024/04/07 10:20:19;;;;;;;1.30;0.70;;;;;;;34.63;20.04;101361.55;105518;1254;61189;-77
2024/04/07 10:22:46;;;;;;;1.70;0.70;;;;;;;34.58;20.09;101360.85;105529;1254;60510;-75
2024/04/07 10:25:14;;;;;;;2.20;0.50;;;;;;;34.57;19.91;101362.50;105652;1254;74218;-77
2024/04/07 10:27:43;;;;;;;2.30;0.60;;;;;;;34.36;19.65;101360.94;105524;1261;64479;-74
2024/04/07 10:30:12;;;;;;;0.90;0.40;;;;;;;34.00;19.83;101362.98;105733;1257;74989;-74
2024/04/07 10:32:40;;;;;;;3.60;0.70;;;;;;;33.69;20.21;101365.27;106225;1257;62040;-76
2024/04/07 10:35:08;;;;;;;5.60;0.90;;;;;;;33.58;20.27;101363.43;106478;1257;60446;-77
2024/04/07 10:37:40;;;;;;;0.60;0.60;;;;;;;33.69;20.76;101364.66;105660;1254;72999;-76
2024/04/07 10:40:10;;;;;;;0.80;0.40;;;;;;;33.86;21.26;101365.75;105575;1254;63891;-75
2024/04/07 10:42:38;;;;;;;2.60;0.60;;;;;;;34.04;21.01;101372.19;105665;1254;74997;-74
2024/04/07 10:45:08;;;;;;;1.40;0.80;;;;;;;34.22;21.24;101371.91;105790;1258;60533;-73
2024/04/07 10:47:36;;;;;;;1.70;1.40;;;;;;;34.28;20.81;101374.90;105654;1254;62279;-75
2024/04/07 10:50:04;;;;;;;2.50;0.90;;;;;;;34.33;20.43;101370.04;105707;1259;76089;-77
2024/04/07 10:52:32;;;;;;;1.30;0.60;;;;;;;34.29;20.48;101373.66;105727;1254;63247;-75
2024/04/07 10:54:59;;;;;;;1.80;0.80;;;;;;;34.26;20.21;101373.63;105652;1254;70720;-74
2024/04/07 10:57:26;;;;;;;1.40;0.40;;;;;;;34.26;20.20;101368.14;105756;1254;61298;-75
2024/04/07 10:59:55;;;;;;;0.90;0.60;;;;;;;34.03;20.53;101366.17;105695;1257;60460;-74
2024/04/07 11:02:22;;;;;;;1.20;0.70;;;;;;;33.83;20.82;101368.93;105647;1255;76075;-76
2024/04/07 11:04:50;;;;;;;1.70;0.60;;;;;;;33.72;20.70;101364.65;105621;1254;62700;-75
2024/04/07 11:07:19;;;;;;;6.00;1.00;;;;;;;33.81;20.71;101362.13;105654;1254;70839;-76
2024/04/07 11:09:46;;;;;;;1.40;0.70;;;;;;;33.98;20.74;101359.34;105636;1254;60536;-75
2024/04/07 11:12:14;;;;;;;1.60;0.70;;;;;;;34.02;20.77;101358.55;105794;1257;60508;-77
2024/04/07 11:14:42;;;;;;;2.50;0.60;;;;;;;33.91;20.60;101365.72;105656;1258;76072;-74
2024/04/07 11:17:09;;;;;;;1.50;0.60;;;;;;;33.60;20.83;101358.65;105712;1254;63543;-78
2024/04/07 11:19:40;;;;;;;0.70;0.40;;;;;;;33.43;20.95;101355.34;105426;1260;73336;-79